Time;durP1;ratioP1;P1;durP2;ratioP2;P2;SDS_P1;SDS_P2;PMS_P1;PMS_P2;Temp;Humidity;BMP_temperature;BMP_pressure;BME280_temperature;BME280_humidity;BME280_pressure;Samples;Min_cycle;Max_cycle;Signal;HPM_P1;HPM_P2
2022/05/27 00:02:15;;;;;;;26.52;4.85;;;14.00;94.70;;;;;;6182718;23;20113;-78
2022/05/27 00:04:42;;;;;;;23.40;4.70;;;14.00;96.60;;;;;;6181699;23;20040;-78
2022/05/27 00:07:09;;;;;;;25.95;4.60;;;13.90;98.20;;;;;;6179781;23;20030;-78
2022/05/27 00:09:36;;;;;;;21.58;4.93;;;13.90;99.40;;;;;;6156012;23;20048;-78
2022/05/27 00:12:04;;;;;;;22.38;4.35;;;13.80;99.90;;;;;;6181497;23;20036;-79
2022/05/27 00:14:30;;;;;;;15.55;4.18;;;13.70;99.70;;;;;;6181167;23;20025;-78
2022/05/27 00:16:57;;;;;;;18.40;4.15;;;13.60;99.90;;;;;;6182020;23;20029;-78
2022/05/27 00:19:24;;;;;;;13.50;3.08;;;13.50;99.90;;;;;;6181399;23;20030;-78
2022/05/27 00:21:50;;;;;;;17.83;4.05;;;13.40;99.90;;;;;;6181263;23;20029;-78
2022/05/27 00:24:17;;;;;;;16.50;3.05;;;13.30;99.60;;;;;;6179368;23;20025;-78
2022/05/27 00:26:44;;;;;;;14.23;3.25;;;13.20;99.80;;;;;;6182074;23;20029;-77
2022/05/27 00:29:11;;;;;;;21.95;3.80;;;13.10;99.90;;;;;;6181134;23;21035;-78
2022/05/27 00:31:38;;;;;;;16.70;3.78;;;13.10;99.90;;;;;;6181553;23;20036;-78
2022/05/27 00:34:04;;;;;;;8.93;3.22;;;13.10;99.90;;;;;;6181125;23;20104;-78
2022/05/27 00:36:31;;;;;;;15.02;3.63;;;13.00;99.90;;;;;;6180899;23;20036;-78
2022/05/27 00:39:00;;;;;;;20.75;3.90;;;13.00;99.90;;;;;;6180497;23;20483;-78
2022/05/27 00:41:27;;;;;;;12.63;2.97;;;13.00;99.90;;;;;;6181507;23;20033;-78
2022/05/27 00:43:53;;;;;;;16.60;3.38;;;12.90;99.90;;;;;;6180497;23;20032;-79
2022/05/27 00:46:25;;;;;;;21.77;4.35;;;12.90;99.90;;;;;;6182274;23;20029;-79
2022/05/27 00:48:56;;;;;;;16.38;3.85;;;12.90;99.90;;;;;;6181316;23;20026;-78
2022/05/27 00:51:29;;;;;;;18.35;3.78;;;12.90;99.90;;;;;;6181494;23;20500;-78
2022/05/27 00:53:58;;;;;;;17.60;3.80;;;12.90;99.90;;;;;;6175911;23;20247;-78
2022/05/27 00:56:29;;;;;;;11.88;3.88;;;12.90;99.90;;;;;;6181321;23;20032;-79
2022/05/27 00:59:00;;;;;;;17.52;4.22;;;12.90;99.90;;;;;;6154176;23;20104;-79
2022/05/27 01:01:28;;;;;;;16.75;4.18;;;13.00;99.90;;;;;;6182010;23;20380;-78
2022/05/27 01:04:01;;;;;;;16.88;4.10;;;13.00;99.90;;;;;;6180664;23;20029;-78
2022/05/27 01:06:28;;;;;;;12.93;4.25;;;12.90;99.90;;;;;;6181332;23;20096;-77
2022/05/27 01:08:55;;;;;;;14.95;4.38;;;12.90;99.90;;;;;;6179901;23;20838;-78
2022/05/27 01:11:27;;;;;;;19.65;4.72;;;12.90;99.90;;;;;;6181770;23;20116;-78
2022/05/27 01:14:06;;;;;;;20.38;4.60;;;12.90;99.90;;;;;;6180787;23;20025;-77
2022/05/27 01:16:53;;;;;;;17.88;4.32;;;12.90;99.90;;;;;;6181382;23;20029;-78
2022/05/27 01:22:35;;;;;;;14.15;4.82;;;12.80;99.90;;;;;;6179683;23;20040;-79
2022/05/27 01:25:39;;;;;;;23.95;4.47;;;12.80;99.90;;;;;;6180246;23;20036;-80
2022/05/27 01:28:21;;;;;;;24.30;4.80;;;12.70;99.90;;;;;;6181076;23;20353;-80
2022/05/27 01:30:54;;;;;;;21.73;4.75;;;12.70;99.90;;;;;;6180877;23;20439;-79
2022/05/27 01:33:54;;;;;;;25.20;5.10;;;12.70;99.90;;;;;;6181597;23;20025;-79
2022/05/27 01:37:02;;;;;;;25.70;5.18;;;12.70;99.90;;;;;;6179502;23;20081;-79
2022/05/27 01:40:05;;;;;;;20.77;4.78;;;12.70;99.90;;;;;;6181433;23;20094;-79
2022/05/27 01:42:55;;;;;;;23.50;5.45;;;12.70;99.90;;;;;;6156200;23;20025;-78
2022/05/27 01:45:26;;;;;;;16.27;4.57;;;12.70;99.90;;;;;;6180589;23;20033;-79
2022/05/27 01:48:28;;;;;;;22.23;5.55;;;12.60;99.90;;;;;;6181387;23;20030;-79
2022/05/27 01:51:13;;;;;;;19.38;4.75;;;12.60;99.90;;;;;;6179746;23;20032;-79
2022/05/27 01:53:49;;;;;;;18.02;4.47;;;12.60;99.90;;;;;;6180915;23;20029;-79
2022/05/27 01:56:32;;;;;;;20.63;5.32;;;12.50;99.90;;;;;;6181059;23;20034;-79
2022/05/27 01:59:17;;;;;;;27.10;4.80;;;12.50;99.90;;;;;;6178086;23;20048;-79
2022/05/27 02:01:54;;;;;;;18.65;4.43;;;12.40;99.90;;;;;;6180702;23;20025;-79
2022/05/27 02:04:51;;;;;;;26.60;4.60;;;12.40;99.90;;;;;;6181471;23;20036;-79
2022/05/27 02:07:36;;;;;;;29.70;4.95;;;12.30;99.90;;;;;;6180825;23;20037;-78
2022/05/27 02:10:09;;;;;;;19.05;4.30;;;12.30;99.90;;;;;;6179094;23;20032;-78
2022/05/27 02:12:48;;;;;;;16.80;4.90;;;12.20;99.90;;;;;;6181273;23;20032;-77
2022/05/27 02:15:35;;;;;;;18.98;4.70;;;12.20;99.90;;;;;;6185581;23;20515;-79
2022/05/27 02:18:30;;;;;;;21.58;4.75;;;12.10;99.90;;;;;;6182842;23;20445;-79
2022/05/27 02:21:02;;;;;;;22.02;4.50;;;12.00;99.90;;;;;;6165865;23;20482;-79
2022/05/27 02:23:35;;;;;;;17.15;4.15;;;12.00;99.90;;;;;;6181519;23;20056;-79
2022/05/27 02:26:08;;;;;;;17.85;4.57;;;12.00;99.90;;;;;;6181583;23;20026;-78
2022/05/27 02:28:41;;;;;;;22.65;4.53;;;12.00;99.90;;;;;;6183992;23;20109;-78
2022/05/27 02:31:25;;;;;;;17.42;4.43;;;11.90;99.90;;;;;;6180805;23;20032;-79
2022/05/27 02:37:04;;;;;;;19.77;4.18;;;11.90;99.90;;;;;;6182998;23;20036;-78
2022/05/27 02:39:31;;;;;;;20.48;4.10;;;11.80;99.90;;;;;;6182441;23;20396;-79
2022/05/27 02:42:19;;;;;;;18.42;5.07;;;11.80;99.90;;;;;;6182640;23;20026;-79
2022/05/27 02:45:09;;;;;;;17.05;4.68;;;11.80;99.90;;;;;;6181733;23;20032;-79
2022/05/27 02:47:51;;;;;;;16.23;4.20;;;11.80;99.90;;;;;;6183463;23;20112;-78
2022/05/27 02:50:39;;;;;;;22.05;4.65;;;11.80;99.90;;;;;;6163262;23;20065;-79
2022/05/27 02:53:29;;;;;;;22.63;5.20;;;11.80;99.90;;;;;;6194389;23;20105;-79
2022/05/27 02:56:18;;;;;;;11.88;3.88;;;11.80;99.90;;;;;;6183371;23;20032;-79
2022/05/27 02:58:44;;;;;;;16.88;4.32;;;11.70;99.90;;;;;;6192777;23;20026;-79
2022/05/27 03:01:11;;;;;;;17.88;4.88;;;11.70;99.90;;;;;;6195376;23;20124;-79
2022/05/27 03:03:44;;;;;;;16.63;4.68;;;11.60;99.90;;;;;;6182319;23;20485;-79
2022/05/27 03:06:24;;;;;;;20.30;4.95;;;11.60;99.90;;;;;;6180388;23;20027;-78
2022/05/27 03:09:04;;;;;;;20.30;5.30;;;11.60;99.90;;;;;;6181292;23;20470;-79
2022/05/27 03:11:53;;;;;;;27.95;5.80;;;11.60;99.90;;;;;;6181126;23;20039;-78
2022/05/27 03:14:40;;;;;;;17.42;4.60;;;11.50;99.90;;;;;;6181908;23;20461;-79
2022/05/27 03:17:42;;;;;;;17.27;5.50;;;11.50;99.90;;;;;;6181334;23;20610;-78
2022/05/27 03:20:49;;;;;;;20.13;5.45;;;11.50;99.90;;;;;;6180908;23;20049;-79
2022/05/27 03:23:49;;;;;;;16.60;4.82;;;11.40;99.90;;;;;;6181339;23;20567;-79
2022/05/27 03:26:29;;;;;;;23.00;5.57;;;11.40;99.90;;;;;;6181938;23;20025;-79
2022/05/27 03:29:40;;;;;;;24.05;5.93;;;11.30;99.90;;;;;;6181757;23;20464;-79
2022/05/27 03:32:36;;;;;;;21.77;5.75;;;11.30;99.90;;;;;;6150315;23;20032;-80
2022/05/27 03:35:13;;;;;;;25.85;6.05;;;11.30;99.90;;;;;;6181417;23;20030;-79
2022/05/27 03:37:50;;;;;;;25.35;6.28;;;11.20;99.90;;;;;;6181750;23;20026;-78
2022/05/27 03:40:25;;;;;;;26.88;5.60;;;11.20;99.90;;;;;;6182676;23;20524;-79
2022/05/27 03:42:53;;;;;;;29.98;6.47;;;11.20;99.90;;;;;;6181976;23;20101;-79
2022/05/27 03:45:22;;;;;;;30.15;6.65;;;11.20;99.90;;;;;;6181598;23;20438;-78
2022/05/27 03:47:50;;;;;;;34.58;7.93;;;11.10;99.90;;;;;;6154219;23;20037;-79
2022/05/27 03:50:21;;;;;;;29.00;7.15;;;11.10;99.90;;;;;;6182072;23;20028;-79
2022/05/27 03:52:51;;;;;;;35.67;7.18;;;11.20;99.90;;;;;;6180970;23;20544;-80
2022/05/27 03:55:21;;;;;;;29.65;7.47;;;11.20;99.90;;;;;;6181990;23;20080;-80
2022/05/27 03:57:48;;;;;;;37.10;7.60;;;11.10;99.90;;;;;;6181863;23;20025;-79
2022/05/27 04:00:16;;;;;;;28.90;7.00;;;11.10;99.90;;;;;;6181084;23;20032;-78
2022/05/27 04:02:44;;;;;;;42.65;7.90;;;11.10;99.90;;;;;;6181794;23;20040;-79
2022/05/27 04:05:16;;;;;;;40.97;8.85;;;11.10;99.90;;;;;;6180907;23;20040;-79
2022/05/27 04:07:44;;;;;;;31.73;8.07;;;11.20;99.90;;;;;;6180551;23;20032;-79
2022/05/27 04:10:11;;;;;;;31.35;8.32;;;11.20;99.90;;;;;;6182915;23;20028;-79
2022/05/27 04:12:38;;;;;;;39.90;7.65;;;11.30;99.90;;;;;;6182353;23;20511;-78
2022/05/27 04:15:06;;;;;;;39.75;9.00;;;11.30;99.90;;;;;;6181012;23;20596;-79
2022/05/27 04:17:32;;;;;;;48.95;9.65;;;11.30;99.90;;;;;;6181127;23;20026;-78
2022/05/27 04:20:01;;;;;;;39.33;8.48;;;11.40;99.90;;;;;;6181614;23;20467;-78
2022/05/27 04:22:28;;;;;;;43.50;8.90;;;11.40;99.90;;;;;;6181137;23;20022;-79
2022/05/27 04:24:56;;;;;;;54.28;9.88;;;11.50;99.90;;;;;;6177647;23;20020;-79
2022/05/27 04:27:23;;;;;;;62.78;11.45;;;11.50;99.90;;;;;;6148762;23;20032;-79
2022/05/27 04:29:51;;;;;;;37.88;9.57;;;11.60;99.90;;;;;;6171019;23;20021;-78
2022/05/27 04:32:20;;;;;;;52.05;10.10;;;11.70;99.90;;;;;;6181268;23;20029;-79
2022/05/27 04:34:50;;;;;;;32.50;9.43;;;11.80;99.90;;;;;;6182474;23;20033;-78
2022/05/27 04:37:18;;;;;;;48.30;9.07;;;11.80;99.90;;;;;;6184804;23;20096;-79
2022/05/27 04:39:45;;;;;;;39.38;9.88;;;11.90;99.90;;;;;;6181595;23;20029;-79
2022/05/27 04:42:12;;;;;;;43.80;9.93;;;11.90;99.90;;;;;;6181643;23;20026;-79
2022/05/27 04:44:39;;;;;;;52.35;10.52;;;12.00;99.90;;;;;;6181160;23;20393;-79
2022/05/27 04:47:11;;;;;;;49.83;9.88;;;12.10;99.90;;;;;;6180911;23;20029;-80
2022/05/27 04:49:56;;;;;;;40.75;8.52;;;12.20;99.90;;;;;;6181648;23;20021;-79
2022/05/27 04:52:31;;;;;;;42.33;9.65;;;12.30;99.90;;;;;;6181639;23;20492;-80
2022/05/27 04:55:01;;;;;;;54.33;10.18;;;12.40;99.90;;;;;;6181301;23;20025;-79
2022/05/27 04:57:32;;;;;;;28.00;8.18;;;12.50;99.90;;;;;;6161091;23;20029;-79
2022/05/27 05:00:00;;;;;;;36.08;8.32;;;12.50;99.90;;;;;;6180768;23;20552;-79
2022/05/27 05:02:27;;;;;;;37.45;7.47;;;12.60;99.90;;;;;;6181189;23;20032;-79
2022/05/27 05:05:01;;;;;;;25.90;6.50;;;12.60;99.90;;;;;;6180785;23;20509;-79
2022/05/27 05:07:28;;;;;;;19.63;6.30;;;12.70;99.90;;;;;;6155028;23;20033;-79
2022/05/27 05:09:55;;;;;;;25.23;7.15;;;12.70;99.90;;;;;;6181166;23;20031;-78
2022/05/27 05:12:22;;;;;;;31.80;7.32;;;12.70;99.90;;;;;;6181257;23;20791;-78
2022/05/27 05:14:51;;;;;;;23.95;6.50;;;12.90;99.90;;;;;;6180654;23;20033;-79
2022/05/27 05:17:19;;;;;;;25.48;6.35;;;13.00;99.90;;;;;;6181178;23;20026;-78
2022/05/27 05:19:47;;;;;;;26.23;7.18;;;13.00;99.90;;;;;;6180347;23;20030;-79
2022/05/27 05:22:14;;;;;;;22.63;5.68;;;13.20;99.90;;;;;;6181292;23;20026;-79
2022/05/27 05:24:41;;;;;;;22.67;5.47;;;13.20;99.90;;;;;;6181219;23;20719;-79
2022/05/27 05:27:07;;;;;;;20.27;4.50;;;13.30;99.90;;;;;;6181097;23;20460;-78
2022/05/27 05:29:34;;;;;;;27.08;5.72;;;13.40;99.90;;;;;;6181162;23;20103;-78
2022/05/27 05:32:01;;;;;;;17.30;3.97;;;13.40;99.90;;;;;;6181224;23;20447;-79
2022/05/27 05:34:27;;;;;;;22.52;4.63;;;13.40;99.90;;;;;;6180760;23;20034;-79
2022/05/27 05:36:56;;;;;;;18.17;4.38;;;13.50;99.90;;;;;;6148865;23;20030;-79
2022/05/27 05:39:24;;;;;;;19.50;3.60;;;13.50;99.90;;;;;;6151338;23;20719;-80
2022/05/27 05:42:05;;;;;;;13.45;3.30;;;13.50;99.90;;;;;;6151186;23;20030;-79
2022/05/27 05:44:33;;;;;;;10.68;2.95;;;13.50;99.00;;;;;;6152146;23;20033;-80
2022/05/27 05:47:01;;;;;;;16.95;3.33;;;13.40;98.70;;;;;;6174925;23;20101;-79
2022/05/27 05:49:28;;;;;;;11.70;3.20;;;13.40;98.10;;;;;;6151127;23;20804;-79
2022/05/27 05:51:57;;;;;;;13.73;3.55;;;13.50;98.40;;;;;;6149485;23;20102;-79
2022/05/27 05:54:26;;;;;;;16.38;3.03;;;13.40;98.40;;;;;;6152766;23;20109;-79
2022/05/27 05:56:52;;;;;;;15.32;2.58;;;13.50;97.70;;;;;;6152980;23;20022;-80
2022/05/27 05:59:20;;;;;;;12.27;2.60;;;13.50;97.40;;;;;;6166250;23;20074;-80
2022/05/27 06:01:47;;;;;;;15.15;2.55;;;13.50;95.40;;;;;;6163684;23;20469;-80
2022/05/27 06:04:14;;;;;;;11.57;2.40;;;13.50;94.50;;;;;;6154408;23;20448;-79
2022/05/27 06:06:41;;;;;;;11.43;2.53;;;13.30;91.30;;;;;;6172261;23;20037;-80
2022/05/27 06:09:08;;;;;;;14.25;2.70;;;13.30;91.50;;;;;;6191380;23;20489;-79
2022/05/27 06:11:38;;;;;;;11.30;2.95;;;13.20;90.90;;;;;;6153283;23;20025;-80
2022/05/27 06:14:05;;;;;;;13.98;2.08;;;13.30;89.00;;;;;;6153278;23;20030;-78
2022/05/27 06:16:33;;;;;;;12.45;3.00;;;13.30;90.20;;;;;;6152858;23;20036;-79
2022/05/27 06:19:00;;;;;;;16.40;3.10;;;13.30;88.80;;;;;;6153401;23;20034;-79
2022/05/27 06:21:27;;;;;;;12.63;2.58;;;13.50;87.70;;;;;;6153315;23;20026;-79
2022/05/27 06:23:54;;;;;;;14.43;2.38;;;13.50;86.60;;;;;;6152043;23;20487;-80
2022/05/27 06:26:20;;;;;;;16.13;2.60;;;13.40;89.30;;;;;;6152535;23;20117;-79
2022/05/27 06:34:28;;;;;;;12.55;2.35;;;13.50;85.90;;;;;;6152715;23;20122;-78
2022/05/27 06:37:08;;;;;;;11.88;2.20;;;13.70;87.60;;;;;;6169679;23;20524;-79
2022/05/27 06:39:36;;;;;;;14.43;2.50;;;13.90;89.00;;;;;;6182966;23;20032;-79
2022/05/27 06:42:07;;;;;;;18.73;3.05;;;13.90;86.50;;;;;;6155551;23;20146;-78
2022/05/27 06:44:54;;;;;;;11.65;2.28;;;13.80;84.60;;;;;;6180760;23;20033;-80
2022/05/27 06:47:22;;;;;;;13.02;2.50;;;14.00;86.40;;;;;;6181776;23;20076;-78
2022/05/27 06:49:48;;;;;;;13.10;2.42;;;14.10;86.00;;;;;;6181357;23;20068;-79
2022/05/27 06:52:16;;;;;;;13.70;2.50;;;14.20;87.50;;;;;;6181232;23;20441;-78
2022/05/27 06:54:42;;;;;;;11.80;2.05;;;14.20;87.80;;;;;;6181390;23;20029;-78
2022/05/27 06:57:10;;;;;;;16.80;2.70;;;14.10;82.70;;;;;;6156069;23;20025;-78
2022/05/27 06:59:37;;;;;;;13.23;2.58;;;14.10;82.20;;;;;;6154025;23;20025;-81
2022/05/27 07:02:05;;;;;;;13.40;2.38;;;14.10;83.30;;;;;;6180195;23;20357;-78
2022/05/27 07:04:32;;;;;;;13.15;2.47;;;14.20;81.20;;;;;;6178437;23;20469;-77
2022/05/27 07:06:59;;;;;;;11.13;2.47;;;14.00;81.50;;;;;;6181940;23;20058;-79
2022/05/27 07:09:25;;;;;;;22.17;3.10;;;14.00;79.40;;;;;;6181869;23;20026;-77
2022/05/27 07:11:55;;;;;;;12.48;2.88;;;14.20;83.00;;;;;;6182087;23;20251;-80
2022/05/27 07:14:22;;;;;;;12.38;2.42;;;14.30;83.60;;;;;;6180496;23;20381;-79
2022/05/27 07:16:48;;;;;;;15.25;2.35;;;14.30;79.70;;;;;;6181174;23;20506;-80
2022/05/27 07:19:35;;;;;;;14.77;3.05;;;14.30;84.10;;;;;;6182001;23;20032;-80
2022/05/27 07:22:04;;;;;;;9.75;2.20;;;14.50;77.10;;;;;;6181873;23;20029;-80
2022/05/27 07:24:31;;;;;;;12.73;2.58;;;14.50;79.30;;;;;;6154754;23;20642;-79
2022/05/27 07:26:58;;;;;;;12.00;3.22;;;14.60;83.60;;;;;;6181632;23;20021;-80
2022/05/27 07:29:24;;;;;;;14.00;2.53;;;14.90;81.60;;;;;;6169475;23;20028;-79
2022/05/27 07:31:51;;;;;;;17.23;2.58;;;14.90;76.00;;;;;;6155819;23;20063;-79
2022/05/27 07:34:18;;;;;;;14.95;2.75;;;14.80;81.70;;;;;;6175938;23;20060;-79
2022/05/27 07:36:45;;;;;;;15.40;3.13;;;15.00;81.60;;;;;;6180217;23;20032;-80
2022/05/27 07:39:11;;;;;;;16.33;2.95;;;15.10;82.00;;;;;;6155016;23;20030;-80
2022/05/27 07:41:39;;;;;;;14.40;3.03;;;15.40;83.10;;;;;;6181506;23;20466;-80
2022/05/27 07:44:06;;;;;;;17.33;3.45;;;15.50;80.90;;;;;;6154302;23;20030;-80
2022/05/27 07:46:34;;;;;;;16.08;2.80;;;15.20;79.60;;;;;;6182147;23;20103;-80
2022/05/27 07:49:04;;;;;;;15.13;2.83;;;15.10;73.20;;;;;;6154642;23;20030;-80
2022/05/27 07:51:50;;;;;;;13.35;2.78;;;15.30;78.60;;;;;;6180383;23;20112;-80
2022/05/27 07:54:18;;;;;;;20.13;2.92;;;15.40;81.10;;;;;;6181830;23;20108;-80
2022/05/27 07:56:45;;;;;;;11.52;2.58;;;15.40;78.00;;;;;;6179610;23;20025;-80
2022/05/27 07:59:11;;;;;;;19.35;2.63;;;15.20;80.70;;;;;;6175955;23;20026;-81
2022/05/27 08:01:39;;;;;;;13.00;2.58;;;15.10;73.50;;;;;;6171060;23;20029;-81
2022/05/27 08:04:07;;;;;;;11.27;2.80;;;15.20;69.80;;;;;;6154642;23;20531;-80
2022/05/27 08:06:34;;;;;;;12.10;3.05;;;15.00;71.60;;;;;;6182163;23;20504;-80
2022/05/27 08:09:01;;;;;;;15.60;2.78;;;15.30;74.60;;;;;;6153349;23;20040;-79
2022/05/27 08:11:27;;;;;;;13.80;3.05;;;15.80;69.10;;;;;;6178362;23;20089;-81
2022/05/27 08:13:55;;;;;;;12.30;2.75;;;15.80;71.50;;;;;;6179361;23;20452;-79
2022/05/27 08:16:23;;;;;;;18.50;3.08;;;15.60;67.30;;;;;;6178263;23;20100;-81
2022/05/27 08:18:50;;;;;;;14.05;2.75;;;15.90;70.90;;;;;;6178749;23;20021;-81
2022/05/27 08:21:17;;;;;;;13.93;2.55;;;16.40;61.20;;;;;;6182845;23;20063;-80
2022/05/27 08:23:43;;;;;;;15.07;2.58;;;16.70;70.80;;;;;;6184106;23;20790;-80
2022/05/27 08:26:11;;;;;;;15.82;3.10;;;17.60;74.10;;;;;;6184518;23;20101;-80
2022/05/27 08:28:37;;;;;;;22.25;3.30;;;18.70;70.70;;;;;;6185451;23;20045;-80
2022/05/27 08:31:04;;;;;;;14.77;3.05;;;18.90;65.40;;;;;;6187209;23;20029;-80
2022/05/27 08:39:11;;;;;;;12.68;2.72;;;17.80;63.40;;;;;;6181310;23;20029;-78
2022/05/27 08:41:53;;;;;;;15.15;3.17;;;17.70;70.30;;;;;;6177899;23;20158;-81
2022/05/27 08:44:44;;;;;;;14.18;3.15;;;17.90;63.10;;;;;;6176513;23;20129;-80
2022/05/27 08:47:25;;;;;;;13.75;3.00;;;17.70;68.40;;;;;;6181364;23;20308;-80
2022/05/27 08:50:02;;;;;;;12.02;2.80;;;18.10;57.50;;;;;;6184104;23;20109;-79
2022/05/27 08:52:52;;;;;;;15.93;3.00;;;18.20;56.20;;;;;;6185013;23;20097;-79
2022/05/27 09:01:11;;;;;;;11.98;2.85;;;18.20;63.10;;;;;;6183821;23;20104;-80
2022/05/27 09:03:45;;;;;;;11.15;2.85;;;17.40;60.80;;;;;;6185414;23;20028;-79
2022/05/27 09:06:13;;;;;;;12.35;2.53;;;17.40;67.00;;;;;;6162862;23;20018;-79
2022/05/27 09:08:40;;;;;;;16.52;2.92;;;17.10;61.50;;;;;;6195791;23;20024;-79
2022/05/27 09:11:28;;;;;;;14.02;3.65;;;17.30;69.10;;;;;;6165197;23;20567;-78
2022/05/27 09:14:18;;;;;;;12.93;3.10;;;18.10;61.00;;;;;;6197164;23;20096;-79
2022/05/27 09:17:14;;;;;;;14.48;2.58;;;17.40;57.50;;;;;;6169933;23;20405;-79
2022/05/27 09:20:16;;;;;;;13.85;2.92;;;17.80;62.20;;;;;;6196934;23;20029;-79
2022/05/27 09:23:04;;;;;;;8.68;2.53;;;18.40;53.10;;;;;;6187878;23;20053;-79
2022/05/27 09:26:09;;;;;;;11.45;2.90;;;18.70;61.90;;;;;;6184798;23;20029;-80
2022/05/27 09:28:41;;;;;;;10.30;2.85;;;19.20;61.60;;;;;;6183626;23;20449;-79
2022/05/27 09:31:11;;;;;;;12.32;2.92;;;19.80;53.80;;;;;;6181674;23;20025;-79
2022/05/27 09:33:42;;;;;;;14.55;3.22;;;20.10;50.10;;;;;;6181883;23;20114;-79
2022/05/27 09:36:14;;;;;;;14.13;3.45;;;20.40;59.10;;;;;;6181671;23;20030;-79
2022/05/27 09:38:52;;;;;;;15.50;3.03;;;19.50;64.00;;;;;;6182124;23;20034;-80
2022/05/27 09:41:33;;;;;;;16.13;3.45;;;19.00;53.90;;;;;;6182653;23;20048;-79
2022/05/27 09:44:06;;;;;;;16.17;3.75;;;18.20;53.30;;;;;;6182677;23;20025;-79
2022/05/27 09:46:33;;;;;;;;;;;18.50;61.60;;;;;;6182829;23;20818;-79
2022/05/27 09:49:00;;;;;;;10.13;2.97;;;18.80;62.70;;;;;;6182272;23;19979;-79
2022/05/27 09:51:30;;;;;;;13.68;3.25;;;18.80;64.70;;;;;;6182952;23;20429;-79
2022/05/27 09:54:14;;;;;;;13.45;3.10;;;18.80;52.60;;;;;;6182078;23;20057;-79
2022/05/27 09:56:54;;;;;;;11.65;2.90;;;19.00;50.10;;;;;;6182972;23;20051;-79
2022/05/27 09:59:40;;;;;;;14.35;2.55;;;19.20;56.50;;;;;;6156960;23;20825;-79
2022/05/27 10:02:28;;;;;;;12.63;3.20;;;18.80;53.50;;;;;;6182407;23;20711;-80
2022/05/27 10:05:02;;;;;;;15.02;3.20;;;18.30;56.10;;;;;;6182335;23;20405;-78
2022/05/27 10:07:52;;;;;;;11.98;3.10;;;18.30;50.20;;;;;;6182411;23;20101;-78
2022/05/27 10:10:28;;;;;;;11.57;2.90;;;18.10;46.60;;;;;;6182162;23;20051;-79
2022/05/27 10:13:23;;;;;;;13.18;3.38;;;17.90;51.30;;;;;;6182677;23;20515;-79
2022/05/27 10:15:50;;;;;;;15.65;3.05;;;18.00;48.70;;;;;;6182301;23;20025;-79
2022/05/27 10:18:22;;;;;;;16.27;3.03;;;17.70;47.60;;;;;;6182322;23;20032;-79
2022/05/27 15:43:36;;;;;;;11.88;2.08;;;20.80;41.50;;;;;;6140120;23;20025;-74
2022/05/27 15:46:06;;;;;;;11.20;2.80;;;20.90;40.20;;;;;;6150592;23;20040;-76
2022/05/27 15:48:33;;;;;;;10.50;2.60;;;20.60;40.10;;;;;;6149212;23;20434;-77
2022/05/27 15:51:02;;;;;;;8.95;2.20;;;19.60;41.30;;;;;;6148844;23;20460;-77
2022/05/27 15:53:29;;;;;;;12.73;2.28;;;18.90;43.20;;;;;;6150257;23;20030;-76
2022/05/27 15:55:56;;;;;;;11.65;2.70;;;18.30;43.30;;;;;;6147100;23;20021;-76
2022/05/27 15:58:22;;;;;;;9.48;2.40;;;18.20;45.60;;;;;;6149791;23;20029;-76
2022/05/27 16:00:49;;;;;;;13.02;2.70;;;18.00;45.30;;;;;;6151730;23;20496;-77
2022/05/27 16:03:19;;;;;;;11.18;2.50;;;17.80;46.00;;;;;;6148209;23;20030;-76
2022/05/27 16:05:52;;;;;;;10.85;2.33;;;17.60;45.20;;;;;;6150221;23;20025;-76
2022/05/27 16:08:19;;;;;;;10.18;2.65;;;17.30;46.60;;;;;;6151157;23;20034;-76
2022/05/27 16:10:47;;;;;;;9.65;2.25;;;16.80;47.30;;;;;;6149626;23;20033;-75
2022/05/27 16:13:16;;;;;;;8.20;2.20;;;16.70;47.20;;;;;;6150922;23;20057;-77
2022/05/27 16:17:50;;;;;;;8.75;1.90;;;16.50;47.60;;;;;;6150751;23;20030;-77
2022/05/27 16:18:29;;;;;;;11.80;2.00;;;16.50;48.10;;;;;;6145636;23;20482;-77
2022/05/27 16:20:56;;;;;;;10.07;1.92;;;16.70;48.20;;;;;;6112450;23;20369;-77
2022/05/27 16:23:25;;;;;;;8.07;1.83;;;16.70;48.20;;;;;;6148060;23;20392;-76
2022/05/27 16:25:51;;;;;;;8.40;1.90;;;16.40;47.10;;;;;;6149854;23;20450;-76
2022/05/27 16:28:18;;;;;;;9.07;1.80;;;16.20;47.80;;;;;;6152241;23;20041;-76
2022/05/27 16:30:45;;;;;;;8.43;1.80;;;16.30;48.80;;;;;;6152186;23;20036;-77
2022/05/27 16:33:12;;;;;;;5.72;1.73;;;16.30;49.10;;;;;;6102035;23;20030;-76
2022/05/27 16:35:40;;;;;;;7.75;1.60;;;16.10;48.50;;;;;;6151312;23;20037;-76
2022/05/27 16:38:09;;;;;;;6.28;1.75;;;16.10;48.30;;;;;;6125994;23;20463;-76
2022/05/27 16:40:36;;;;;;;8.98;1.83;;;16.40;48.20;;;;;;6151191;23;20097;-76
2022/05/27 16:43:04;;;;;;;9.85;2.28;;;16.90;47.70;;;;;;6150976;23;20032;-76
2022/05/27 16:45:31;;;;;;;8.05;1.90;;;16.80;46.70;;;;;;6150922;23;20026;-76
2022/05/27 16:47:57;;;;;;;10.05;1.90;;;16.50;47.10;;;;;;6149715;23;20030;-76
2022/05/27 16:50:29;;;;;;;13.65;1.95;;;16.20;47.30;;;;;;6123841;23;20022;-77
2022/05/27 16:52:56;;;;;;;7.72;1.88;;;16.20;47.70;;;;;;6151805;23;20018;-76
2022/05/27 16:55:23;;;;;;;10.38;2.15;;;16.20;48.50;;;;;;6151127;23;20577;-76
2022/05/27 16:57:51;;;;;;;9.93;2.08;;;16.20;48.60;;;;;;6124525;23;20041;-76
2022/05/27 17:00:21;;;;;;;9.75;1.92;;;16.30;48.50;;;;;;6149456;23;20018;-76
2022/05/27 17:02:48;;;;;;;8.40;1.70;;;16.40;47.70;;;;;;6149902;23;20029;-76
2022/05/27 17:05:17;;;;;;;9.93;2.45;;;16.30;47.30;;;;;;6151822;23;20036;-77
2022/05/27 17:07:44;;;;;;;8.98;2.05;;;16.30;48.40;;;;;;6149827;23;20029;-76
2022/05/27 17:10:12;;;;;;;11.77;2.38;;;16.30;48.80;;;;;;6151818;23;20029;-76
2022/05/27 17:12:39;;;;;;;20.48;2.78;;;16.20;48.90;;;;;;6150326;23;20057;-76
2022/05/27 17:15:10;;;;;;;9.30;2.08;;;16.10;49.40;;;;;;6151602;23;20026;-76
2022/05/27 17:17:47;;;;;;;10.75;2.50;;;16.00;49.10;;;;;;6151065;23;20034;-77
2022/05/27 17:20:13;;;;;;;12.05;2.50;;;16.00;49.20;;;;;;6124916;23;20037;-76
2022/05/27 17:22:42;;;;;;;10.60;1.73;;;15.90;49.90;;;;;;6150803;23;20060;-78
2022/05/27 17:25:10;;;;;;;10.13;2.20;;;15.70;48.20;;;;;;6150732;23;20036;-76
2022/05/27 17:27:36;;;;;;;10.18;2.00;;;15.40;49.40;;;;;;6149967;23;20034;-76
2022/05/27 17:30:04;;;;;;;10.30;2.17;;;15.20;49.90;;;;;;6151507;23;20535;-76
2022/05/27 17:32:30;;;;;;;10.10;2.00;;;15.00;51.00;;;;;;6152320;23;20029;-77
2022/05/27 17:34:57;;;;;;;5.95;1.63;;;14.90;51.10;;;;;;6151691;23;20026;-77
2022/05/27 17:37:24;;;;;;;11.00;2.20;;;14.90;51.50;;;;;;6125905;23;20034;-76
2022/05/27 17:39:50;;;;;;;14.13;2.17;;;15.00;53.00;;;;;;6083539;23;20484;-76
2022/05/27 17:42:17;;;;;;;10.25;1.92;;;14.90;51.30;;;;;;6149096;23;20026;-76
2022/05/27 17:44:44;;;;;;;7.70;1.58;;;14.80;51.90;;;;;;6151201;23;20036;-77
2022/05/27 17:52:41;;;;;;;6.65;1.63;;;14.70;51.50;;;;;;6089059;23;20023;-77
2022/05/27 17:55:08;;;;;;;11.02;1.92;;;14.70;52.70;;;;;;6105685;23;20109;-77
2022/05/27 17:57:35;;;;;;;7.68;1.50;;;14.80;52.60;;;;;;6121407;23;20030;-77
2022/05/27 18:00:02;;;;;;;9.23;1.90;;;14.90;52.70;;;;;;6121800;23;20036;-76
2022/05/27 18:02:29;;;;;;;10.02;1.98;;;14.90;51.70;;;;;;6123346;23;20037;-77
2022/05/27 18:04:56;;;;;;;11.27;2.47;;;14.80;51.90;;;;;;6119012;23;20037;-76
2022/05/27 18:07:22;;;;;;;10.30;1.85;;;14.80;52.20;;;;;;6121332;23;20023;-76
2022/05/27 18:09:49;;;;;;;9.15;1.63;;;14.80;51.80;;;;;;6123642;23;20031;-77
2022/05/27 18:12:16;;;;;;;8.38;1.80;;;14.70;52.10;;;;;;6123090;23;20026;-77
2022/05/27 18:14:42;;;;;;;11.18;1.60;;;14.60;53.00;;;;;;6123625;23;20042;-76
2022/05/27 18:17:09;;;;;;;7.18;1.42;;;14.60;53.30;;;;;;6122871;23;20116;-76
2022/05/27 18:19:36;;;;;;;10.15;2.00;;;14.50;51.90;;;;;;6131627;23;20101;-80
2022/05/27 18:22:03;;;;;;;6.50;1.45;;;14.40;52.20;;;;;;6122880;23;20019;-80
2022/05/27 18:24:31;;;;;;;12.88;1.83;;;14.30;53.10;;;;;;6123445;23;20026;-80
2022/05/27 18:26:58;;;;;;;7.07;1.60;;;14.20;53.90;;;;;;6123921;23;20044;-80
2022/05/27 18:29:24;;;;;;;7.35;1.60;;;14.20;53.30;;;;;;6125151;23;20037;-81
2022/05/27 18:31:51;;;;;;;11.07;2.38;;;14.20;53.20;;;;;;6125290;23;20046;-79
2022/05/27 18:34:18;;;;;;;9.07;1.60;;;14.10;53.20;;;;;;6126912;23;20032;-80
2022/05/27 18:36:44;;;;;;;7.07;1.60;;;14.10;53.60;;;;;;6124217;23;20037;-81
2022/05/27 18:39:11;;;;;;;9.70;1.90;;;14.00;53.30;;;;;;6124210;23;20025;-80
2022/05/27 18:41:37;;;;;;;10.10;1.75;;;14.00;53.40;;;;;;6122124;23;20034;-80
2022/05/27 18:44:04;;;;;;;11.43;2.20;;;14.00;53.80;;;;;;6122605;23;20547;-80
2022/05/27 18:46:31;;;;;;;9.13;1.80;;;13.90;54.80;;;;;;6119168;23;20054;-80
2022/05/27 18:48:57;;;;;;;8.07;1.70;;;13.90;53.50;;;;;;6124650;23;20030;-80
2022/05/27 18:51:24;;;;;;;7.20;1.50;;;13.90;54.60;;;;;;6124358;23;20050;-80
2022/05/27 18:53:52;;;;;;;8.75;1.85;;;13.80;54.60;;;;;;6125221;23;20105;-80
2022/05/27 18:56:20;;;;;;;12.00;1.70;;;13.80;54.50;;;;;;6123871;23;20458;-80